Time;durP1;ratioP1;P1;durP2;ratioP2;P2;SDS_P1;SDS_P2;PMS_P1;PMS_P2;Temp;Humidity;BMP_temperature;BMP_pressure;BME280_temperature;BME280_humidity;BME280_pressure;Samples;Min_cycle;Max_cycle;Signal;HPM_P1;HPM_P2
2023/01/13 00:01:59;;;;;;;2.08;0.98;;;8.40;60.80;;;;;;5052641;28;20218;-67
2023/01/13 00:04:26;;;;;;;1.92;0.80;;;8.40;60.50;;;;;;5051985;28;20190;-68
2023/01/13 00:06:55;;;;;;;2.33;0.90;;;8.50;60.10;;;;;;5052408;28;20245;-67
2023/01/13 00:09:22;;;;;;;1.92;0.77;;;8.50;60.00;;;;;;5052439;28;20534;-67
2023/01/13 00:11:49;;;;;;;1.80;0.70;;;8.50;59.00;;;;;;5051955;28;20285;-67
2023/01/13 00:14:17;;;;;;;3.28;0.80;;;8.60;59.10;;;;;;5052425;28;20225;-67
2023/01/13 00:16:45;;;;;;;2.25;0.80;;;8.50;58.70;;;;;;5052596;28;20208;-67
2023/01/13 00:19:12;;;;;;;2.75;0.80;;;8.60;58.90;;;;;;5068928;28;20273;-67
2023/01/13 00:21:39;;;;;;;1.90;0.65;;;8.60;58.50;;;;;;5071794;28;20291;-67
2023/01/13 00:24:06;;;;;;;1.90;1.00;;;8.60;58.50;;;;;;5056110;28;20225;-67
2023/01/13 00:26:34;;;;;;;1.60;0.80;;;8.70;58.50;;;;;;5052103;28;20604;-67
2023/01/13 00:29:01;;;;;;;2.05;0.75;;;8.70;58.50;;;;;;5065188;28;20217;-67
2023/01/13 00:31:29;;;;;;;2.15;0.70;;;8.70;58.60;;;;;;5071979;28;20277;-67
2023/01/13 00:33:58;;;;;;;1.60;0.60;;;8.70;58.30;;;;;;5071773;28;20194;-67
2023/01/13 00:36:26;;;;;;;1.80;0.80;;;8.70;58.20;;;;;;5059819;28;20266;-67
2023/01/13 00:38:53;;;;;;;3.05;0.80;;;8.70;57.90;;;;;;5068494;28;20566;-67
2023/01/13 00:41:22;;;;;;;1.70;0.77;;;8.70;57.70;;;;;;5071818;28;20649;-66
2023/01/13 00:43:49;;;;;;;1.60;0.77;;;8.80;57.50;;;;;;5071728;28;20221;-67
2023/01/13 00:46:19;;;;;;;1.70;0.60;;;8.80;57.40;;;;;;5071954;28;20250;-67
2023/01/13 00:48:46;;;;;;;2.65;0.90;;;8.80;57.20;;;;;;5071729;28;20566;-67
2023/01/13 00:51:17;;;;;;;2.05;0.68;;;8.80;57.10;;;;;;5072142;28;20282;-66
2023/01/13 00:53:46;;;;;;;2.17;0.70;;;8.80;56.90;;;;;;5071912;28;20194;-67
2023/01/13 00:56:16;;;;;;;1.60;0.70;;;8.80;56.50;;;;;;5072375;28;20293;-67
2023/01/13 00:58:44;;;;;;;1.67;0.77;;;8.80;56.10;;;;;;5071048;28;20186;-67
2023/01/13 01:01:13;;;;;;;4.97;1.15;;;8.80;55.50;;;;;;5071653;28;20236;-66
2023/01/13 01:03:40;;;;;;;2.72;0.65;;;8.80;54.40;;;;;;5070517;28;20190;-66
2023/01/13 01:06:12;;;;;;;1.95;0.80;;;8.80;54.50;;;;;;5071969;28;20189;-67
2023/01/13 01:08:40;;;;;;;1.80;0.70;;;8.90;54.50;;;;;;5071762;28;20225;-67
2023/01/13 01:11:09;;;;;;;2.42;0.70;;;8.90;54.60;;;;;;5071496;28;20229;-67
2023/01/13 01:13:37;;;;;;;1.80;0.65;;;8.90;54.50;;;;;;5070132;28;20277;-67
2023/01/13 01:16:06;;;;;;;1.50;0.60;;;8.90;54.50;;;;;;5071239;28;20280;-66
2023/01/13 01:18:34;;;;;;;2.65;1.05;;;8.90;54.10;;;;;;5070705;28;20723;-67
2023/01/13 01:21:01;;;;;;;2.10;0.90;;;8.90;54.20;;;;;;5071779;28;20292;-66
2023/01/13 01:23:28;;;;;;;2.42;0.70;;;9.00;53.90;;;;;;5071639;28;20281;-66
2023/01/13 01:26:00;;;;;;;1.80;0.57;;;9.00;53.50;;;;;;5052267;28;20225;-66
2023/01/13 01:28:27;;;;;;;1.58;0.60;;;9.00;53.80;;;;;;5063405;28;20315;-67
2023/01/13 01:30:54;;;;;;;3.45;0.60;;;9.00;53.80;;;;;;5071696;28;20276;-67
2023/01/13 01:33:21;;;;;;;1.60;0.70;;;9.00;53.80;;;;;;5071553;28;20196;-67
2023/01/13 01:35:48;;;;;;;2.00;0.80;;;9.00;54.00;;;;;;5075188;28;20383;-67
2023/01/13 01:38:15;;;;;;;1.83;0.60;;;9.10;53.90;;;;;;5074559;28;20225;-67
2023/01/13 01:40:42;;;;;;;1.85;0.80;;;9.10;53.80;;;;;;5075059;28;20238;-68
2023/01/13 01:46:01;;;;;;;2.15;0.70;;;9.00;54.00;;;;;;5057019;28;20621;-67
2023/01/13 01:48:29;;;;;;;1.90;0.75;;;9.00;54.20;;;;;;5066458;28;20308;-67
2023/01/13 01:50:57;;;;;;;1.50;0.60;;;9.10;54.30;;;;;;5074988;28;20280;-67
2023/01/13 01:53:26;;;;;;;1.80;0.80;;;9.00;54.50;;;;;;5075014;28;20691;-67
2023/01/13 01:55:53;;;;;;;1.60;0.70;;;9.10;54.60;;;;;;5059230;28;20235;-67
2023/01/13 01:58:24;;;;;;;1.60;0.68;;;9.10;54.90;;;;;;5060932;28;20555;-67
2023/01/13 02:00:52;;;;;;;2.17;0.50;;;9.10;55.10;;;;;;5069204;28;20221;-67
2023/01/13 02:03:19;;;;;;;2.25;0.63;;;9.10;55.10;;;;;;5054476;28;20230;-67
2023/01/13 02:05:46;;;;;;;2.13;0.60;;;9.10;55.30;;;;;;5056513;28;20286;-67
2023/01/13 02:08:14;;;;;;;1.75;0.80;;;9.10;55.30;;;;;;5074030;28;20295;-67
2023/01/13 02:10:47;;;;;;;1.60;0.70;;;9.20;55.30;;;;;;5074946;28;20278;-67
2023/01/13 02:13:13;;;;;;;1.92;0.70;;;9.20;55.40;;;;;;5074789;28;20248;-67
2023/01/13 02:15:58;;;;;;;2.88;0.63;;;9.20;55.40;;;;;;5074583;28;20594;-67
2023/01/13 02:18:38;;;;;;;1.70;0.60;;;9.30;55.20;;;;;;5074758;28;20279;-67
2023/01/13 02:21:38;;;;;;;1.70;0.70;;;9.30;55.20;;;;;;5069758;28;20217;-67
2023/01/13 02:27:46;;;;;;;1.60;0.55;;;9.30;54.90;;;;;;5054599;28;20292;-67
2023/01/13 02:33:41;;;;;;;2.25;1.05;;;9.30;54.80;;;;;;5053968;28;20696;-67
2023/01/13 02:36:17;;;;;;;2.35;1.05;;;9.20;53.90;;;;;;5061223;28;20268;-66
2023/01/13 02:38:56;;;;;;;1.70;0.80;;;9.00;53.60;;;;;;5073043;28;20190;-67
2023/01/13 02:44:18;;;;;;;1.88;1.08;;;8.70;53.60;;;;;;5057774;28;20224;-66
2023/01/13 02:46:53;;;;;;;1.90;0.90;;;8.70;54.20;;;;;;5053499;28;20284;-67
2023/01/13 02:49:28;;;;;;;2.33;0.90;;;8.50;53.80;;;;;;5068539;28;20248;-67
2023/01/13 02:52:04;;;;;;;2.28;0.90;;;8.30;53.90;;;;;;5073978;28;20193;-66
2023/01/13 02:54:33;;;;;;;1.70;0.90;;;8.10;54.50;;;;;;5057067;28;20229;-66
2023/01/13 02:57:02;;;;;;;2.55;1.00;;;8.10;54.40;;;;;;5070523;28;20184;-66
2023/01/13 02:59:31;;;;;;;1.98;1.13;;;7.90;54.40;;;;;;5073648;28;20287;-66
2023/01/13 03:02:02;;;;;;;2.95;1.00;;;7.80;55.10;;;;;;5073589;28;20833;-66
2023/01/13 03:04:49;;;;;;;1.90;0.88;;;7.70;54.70;;;;;;5072639;28;20198;-66
2023/01/13 03:07:48;;;;;;;1.70;0.70;;;7.60;54.60;;;;;;5073815;28;20378;-66
2023/01/13 03:10:27;;;;;;;2.40;1.20;;;7.50;54.80;;;;;;5053004;28;20190;-67
2023/01/13 03:13:01;;;;;;;1.73;0.75;;;7.40;54.90;;;;;;5053388;28;20243;-67
2023/01/13 03:15:42;;;;;;;4.30;1.30;;;7.30;55.10;;;;;;5058301;28;20195;-66
2023/01/13 03:18:19;;;;;;;1.80;0.85;;;7.30;55.40;;;;;;5073618;28;20710;-67
2023/01/13 03:20:57;;;;;;;2.00;0.85;;;7.30;55.00;;;;;;5073421;28;20191;-67
2023/01/13 03:23:31;;;;;;;2.47;1.00;;;7.30;55.10;;;;;;5073481;28;20219;-67
2023/01/13 03:26:06;;;;;;;2.88;1.00;;;7.30;55.00;;;;;;5073279;28;20200;-66
2023/01/13 03:28:36;;;;;;;2.10;0.98;;;7.30;55.00;;;;;;5071825;28;20678;-66
2023/01/13 03:31:11;;;;;;;2.60;0.85;;;7.30;54.90;;;;;;5073123;28;20485;-66
2023/01/13 03:33:44;;;;;;;2.60;0.95;;;7.30;54.90;;;;;;5073283;28;20290;-67
2023/01/13 03:36:15;;;;;;;2.22;1.02;;;7.30;54.90;;;;;;5073264;28;20219;-66
2023/01/13 03:38:51;;;;;;;2.70;0.90;;;7.30;55.20;;;;;;5071829;28;20200;-68
2023/01/13 03:41:22;;;;;;;1.80;0.85;;;7.30;55.00;;;;;;5072929;28;20224;-68
2023/01/13 03:46:46;;;;;;;2.50;0.88;;;7.40;54.90;;;;;;5058042;28;20199;-67
2023/01/13 03:49:19;;;;;;;1.90;0.85;;;7.40;55.20;;;;;;5052256;28;20304;-67
2023/01/13 03:51:52;;;;;;;1.58;0.70;;;7.50;55.20;;;;;;5053154;28;20276;-67
2023/01/13 03:54:22;;;;;;;2.00;0.88;;;7.50;54.50;;;;;;5056507;28;20194;-67
2023/01/13 03:56:54;;;;;;;1.50;0.60;;;7.50;54.60;;;;;;5072258;28;20568;-67
2023/01/13 03:59:28;;;;;;;1.98;0.90;;;7.50;54.40;;;;;;5072668;28;20223;-67
2023/01/13 04:02:03;;;;;;;1.90;1.13;;;7.60;54.60;;;;;;5072844;28;20233;-67
2023/01/13 04:04:35;;;;;;;3.42;1.55;;;7.70;54.00;;;;;;5061911;28;20285;-66
2023/01/13 04:07:11;;;;;;;2.65;1.33;;;7.60;54.40;;;;;;5052523;28;20605;-67
2023/01/13 04:09:47;;;;;;;2.10;1.00;;;7.60;53.80;;;;;;5052448;28;20320;-66
2023/01/13 04:12:20;;;;;;;2.67;1.20;;;7.60;54.10;;;;;;5052363;28;20605;-67
2023/01/13 04:14:47;;;;;;;2.25;1.15;;;7.70;54.50;;;;;;5067006;28;20265;-67
2023/01/13 04:17:16;;;;;;;2.42;1.30;;;7.80;54.50;;;;;;5072686;28;20241;-68
2023/01/13 04:19:44;;;;;;;3.05;1.23;;;7.70;54.80;;;;;;5072181;28;20239;-67
2023/01/13 04:22:12;;;;;;;3.35;1.50;;;7.80;55.00;;;;;;5072486;28;20279;-67
2023/01/13 04:24:39;;;;;;;2.35;1.45;;;7.90;55.00;;;;;;5059821;28;20278;-67
2023/01/13 04:27:06;;;;;;;2.38;1.08;;;8.00;55.00;;;;;;5052575;28;20630;-66
2023/01/13 04:29:33;;;;;;;3.00;1.75;;;8.10;54.80;;;;;;5062099;28;20259;-67
2023/01/13 04:32:00;;;;;;;2.65;1.35;;;8.10;54.60;;;;;;5072644;28;20243;-67
2023/01/13 04:34:27;;;;;;;3.63;1.92;;;8.20;54.70;;;;;;5072379;28;20254;-66
2023/01/13 04:36:55;;;;;;;2.15;1.08;;;8.30;54.70;;;;;;5072625;28;20284;-67
2023/01/13 04:39:22;;;;;;;2.95;1.60;;;8.40;54.40;;;;;;5053298;28;20270;-67
2023/01/13 04:41:57;;;;;;;4.07;1.50;;;8.50;53.60;;;;;;5052399;28;20197;-67
2023/01/13 04:44:24;;;;;;;3.13;1.35;;;8.50;53.70;;;;;;5068872;28;20217;-67
2023/01/13 04:46:51;;;;;;;2.88;1.45;;;8.50;52.70;;;;;;5072284;28;20221;-67
2023/01/13 04:49:18;;;;;;;3.67;1.40;;;8.50;53.20;;;;;;5072371;28;20304;-67
2023/01/13 04:51:45;;;;;;;1.90;1.08;;;8.60;53.50;;;;;;5072494;28;20703;-67
2023/01/13 04:54:15;;;;;;;5.53;1.50;;;8.60;53.60;;;;;;5056925;28;20520;-67
2023/01/13 04:56:42;;;;;;;4.72;2.13;;;8.60;53.70;;;;;;5051973;28;20281;-67
2023/01/13 04:59:09;;;;;;;3.67;1.15;;;8.60;53.80;;;;;;5064772;28;20671;-67
2023/01/13 05:01:36;;;;;;;3.22;1.27;;;8.60;53.80;;;;;;5072087;28;20208;-67
2023/01/13 05:04:04;;;;;;;2.25;1.20;;;8.60;53.90;;;;;;5071110;28;20537;-67
2023/01/13 05:06:31;;;;;;;2.85;1.02;;;8.70;54.00;;;;;;5072466;28;20190;-67
2023/01/13 05:09:00;;;;;;;2.38;0.90;;;8.70;53.80;;;;;;5074514;28;20227;-67
2023/01/13 05:17:00;;;;;;;2.67;1.58;;;9.00;55.30;;;;;;5075795;28;20197;-67
2023/01/13 05:19:27;;;;;;;2.53;1.20;;;9.10;56.10;;;;;;5060580;28;20183;-67
2023/01/13 05:27:24;;;;;;;1.70;0.70;;;9.30;55.20;;;;;;5055920;28;20197;-66
2023/01/13 05:29:54;;;;;;;1.80;0.90;;;9.40;55.10;;;;;;5055457;28;20280;-67
2023/01/13 05:32:21;;;;;;;7.47;1.10;;;9.40;55.00;;;;;;5055845;28;20461;-67
2023/01/13 05:34:50;;;;;;;1.60;0.70;;;9.50;54.70;;;;;;5065767;28;20273;-67
2023/01/13 05:37:18;;;;;;;1.63;0.70;;;9.50;54.50;;;;;;5055273;28;20186;-68
2023/01/13 05:45:15;;;;;;;2.03;0.70;;;9.60;53.90;;;;;;5074915;28;20225;-67
2023/01/13 05:47:42;;;;;;;3.78;0.82;;;9.70;53.40;;;;;;5074822;28;20190;-67
2023/01/13 05:50:12;;;;;;;4.32;1.45;;;9.70;53.30;;;;;;5075459;28;20295;-67
2023/01/13 05:52:39;;;;;;;1.63;0.80;;;9.80;53.30;;;;;;5074885;28;20212;-67
2023/01/13 05:55:11;;;;;;;1.60;0.68;;;9.80;53.20;;;;;;5075049;28;20189;-66
2023/01/13 05:57:45;;;;;;;2.08;0.80;;;9.80;53.00;;;;;;5056087;28;20269;-67
2023/01/13 06:00:13;;;;;;;1.60;0.70;;;9.80;52.90;;;;;;5054827;28;20174;-67
2023/01/13 06:02:40;;;;;;;1.70;0.80;;;9.80;52.90;;;;;;5054780;28;20202;-67
2023/01/13 06:05:09;;;;;;;3.50;1.80;;;9.80;52.80;;;;;;5055010;28;20289;-67
2023/01/13 06:07:36;;;;;;;3.28;1.08;;;9.80;52.40;;;;;;5055294;28;20309;-67
2023/01/13 06:10:03;;;;;;;3.88;1.42;;;9.90;52.50;;;;;;5054390;28;20297;-66
2023/01/13 06:12:30;;;;;;;4.20;2.28;;;9.90;52.20;;;;;;5054335;28;20191;-67
2023/01/13 06:14:58;;;;;;;5.63;2.60;;;9.90;52.20;;;;;;5054908;28;20297;-67
2023/01/13 06:17:25;;;;;;;4.75;2.80;;;9.90;52.10;;;;;;5054933;28;20551;-67
2023/01/13 06:19:52;;;;;;;2.10;1.05;;;9.90;51.90;;;;;;5053930;28;20276;-67
2023/01/13 06:22:23;;;;;;;2.47;1.38;;;9.90;51.30;;;;;;5054548;28;20261;-67
2023/01/13 06:24:52;;;;;;;2.17;1.33;;;9.90;51.20;;;;;;5054463;28;20198;-66
2023/01/13 06:27:20;;;;;;;3.85;1.75;;;9.90;51.40;;;;;;5054182;28;20194;-67
2023/01/13 06:29:47;;;;;;;2.67;1.95;;;10.00;50.10;;;;;;5053770;28;20250;-67
2023/01/13 06:32:18;;;;;;;2.25;0.80;;;9.90;51.30;;;;;;5054272;28;20244;-67
2023/01/13 06:34:47;;;;;;;2.90;2.00;;;9.90;52.00;;;;;;5054072;28;20206;-67
2023/01/13 06:37:18;;;;;;;3.30;2.08;;;9.80;51.90;;;;;;5068065;28;20239;-68
2023/01/13 06:39:46;;;;;;;2.35;1.30;;;9.80;52.00;;;;;;5063394;28;20687;-68
2023/01/13 06:44:58;;;;;;;2.85;1.45;;;9.60;52.60;;;;;;5055773;28;20221;-67
2023/01/13 06:47:26;;;;;;;2.00;1.00;;;9.60;52.00;;;;;;5070459;28;20284;-68
2023/01/13 06:49:53;;;;;;;1.92;0.93;;;9.60;51.70;;;;;;5067376;28;20249;-67
2023/01/13 06:52:20;;;;;;;2.35;1.00;;;9.60;51.50;;;;;;5071285;28;20280;-65
2023/01/13 06:54:47;;;;;;;2.03;0.93;;;9.70;51.10;;;;;;5066922;28;20186;-67
2023/01/13 06:57:14;;;;;;;2.50;1.10;;;9.70;51.40;;;;;;5070796;28;20276;-68
2023/01/13 07:00:01;;;;;;;2.00;0.95;;;9.60;51.40;;;;;;5059001;28;20182;-67
2023/01/13 07:02:29;;;;;;;2.30;1.33;;;9.60;51.40;;;;;;5053342;28;20229;-67
2023/01/13 07:04:56;;;;;;;2.75;1.10;;;9.50;51.20;;;;;;5067859;28;20247;-67
2023/01/13 07:07:23;;;;;;;3.40;1.10;;;9.40;51.20;;;;;;5071114;28;20625;-67
2023/01/13 07:09:50;;;;;;;2.17;1.23;;;9.40;51.40;;;;;;5068757;28;20228;-67
2023/01/13 07:12:18;;;;;;;2.25;1.33;;;9.40;51.60;;;;;;5057585;28;20222;-67
2023/01/13 07:17:35;;;;;;;2.60;1.25;;;9.30;51.80;;;;;;5070339;28;20274;-67
2023/01/13 07:20:02;;;;;;;3.65;1.20;;;9.30;51.70;;;;;;5070473;28;20194;-66
2023/01/13 07:22:31;;;;;;;6.32;1.90;;;9.30;51.70;;;;;;5069829;28;20275;-68
2023/01/13 07:24:58;;;;;;;9.60;5.30;;;9.30;51.60;;;;;;5069756;28;20301;-67
2023/01/13 07:27:26;;;;;;;6.05;3.08;;;9.30;51.80;;;;;;5070885;28;20267;-67
2023/01/13 07:29:53;;;;;;;38.60;16.25;;;9.40;52.10;;;;;;5070056;28;20232;-67
2023/01/13 07:32:24;;;;;;;28.45;11.43;;;9.30;51.80;;;;;;5070076;28;20292;-68
2023/01/13 07:34:52;;;;;;;12.07;6.28;;;9.40;51.60;;;;;;5056659;28;20230;-68
2023/01/13 07:37:19;;;;;;;12.48;5.55;;;9.40;51.40;;;;;;5059439;28;20759;-68
2023/01/13 07:39:49;;;;;;;12.48;5.97;;;9.40;51.50;;;;;;5054412;28;20185;-67
2023/01/13 07:45:02;;;;;;;4.05;2.75;;;9.50;51.40;;;;;;5065444;28;20233;-68
2023/01/13 07:47:29;;;;;;;2.67;1.55;;;9.60;51.10;;;;;;5050508;28;20189;-67
2023/01/13 07:50:02;;;;;;;4.47;0.90;;;9.60;51.20;;;;;;5063097;28;20226;-67
2023/01/13 07:52:29;;;;;;;3.90;0.88;;;9.60;51.10;;;;;;5052228;28;20598;-67
2023/01/13 07:54:56;;;;;;;2.60;1.00;;;9.60;50.70;;;;;;5068040;28;20196;-68
2023/01/13 07:57:24;;;;;;;2.03;1.10;;;9.70;51.10;;;;;;5066235;28;20197;-68
2023/01/13 07:59:51;;;;;;;2.22;1.20;;;9.70;51.40;;;;;;5069253;28;20197;-67
2023/01/13 08:02:23;;;;;;;2.88;1.80;;;9.80;51.40;;;;;;5069798;28;20547;-67
2023/01/13 08:04:51;;;;;;;5.25;1.42;;;9.90;51.40;;;;;;5067829;28;20185;-68
2023/01/13 08:07:19;;;;;;;4.50;3.15;;;9.90;51.40;;;;;;5053820;28;20259;-67
2023/01/13 08:09:46;;;;;;;4.90;1.83;;;10.00;50.60;;;;;;5051305;28;20237;-67
2023/01/13 08:15:02;;;;;;;2.60;1.00;;;10.00;50.60;;;;;;5069951;28;20192;-67
2023/01/13 08:17:33;;;;;;;2.55;1.13;;;10.00;50.20;;;;;;5069802;28;20209;-66
2023/01/13 08:20:00;;;;;;;4.38;2.03;;;10.00;49.50;;;;;;5069995;28;20548;-67
2023/01/13 08:22:29;;;;;;;2.72;1.30;;;10.00;49.40;;;;;;5069859;28;20250;-68
2023/01/13 08:24:56;;;;;;;2.35;1.20;;;10.00;49.50;;;;;;5069236;28;20186;-67
2023/01/13 08:27:23;;;;;;;4.03;1.85;;;10.10;49.60;;;;;;5069825;28;20223;-67
2023/01/13 08:29:50;;;;;;;4.70;2.67;;;10.10;49.60;;;;;;5069529;28;20241;-67
2023/01/13 08:32:17;;;;;;;3.10;1.70;;;10.00;49.30;;;;;;5069667;28;20632;-67
2023/01/13 08:34:44;;;;;;;5.63;2.10;;;10.00;49.40;;;;;;5055999;28;20276;-67
2023/01/13 08:37:11;;;;;;;5.63;2.35;;;10.00;49.80;;;;;;5066188;28;20221;-68
2023/01/13 08:39:40;;;;;;;3.65;2.50;;;10.00;49.70;;;;;;5069889;28;20579;-67
2023/01/13 08:42:07;;;;;;;4.75;1.75;;;10.00;49.90;;;;;;5070601;28;20185;-68
2023/01/13 08:44:34;;;;;;;3.80;2.58;;;10.00;50.10;;;;;;5072843;28;20770;-67
2023/01/13 08:47:01;;;;;;;4.15;1.65;;;10.10;50.30;;;;;;5073650;28;20197;-67
2023/01/13 08:49:28;;;;;;;2.15;1.10;;;9.90;50.70;;;;;;5073405;28;20305;-68
2023/01/13 08:51:55;;;;;;;7.78;1.20;;;9.90;51.80;;;;;;5073620;28;20194;-67
2023/01/13 08:54:22;;;;;;;2.22;1.33;;;9.90;52.00;;;;;;5069198;28;20667;-67
2023/01/13 08:56:51;;;;;;;2.45;1.35;;;9.90;51.60;;;;;;5073623;28;20224;-67
2023/01/13 08:59:19;;;;;;;7.97;1.85;;;9.90;51.40;;;;;;5069301;28;20288;-67
2023/01/13 09:01:47;;;;;;;3.05;1.40;;;9.90;51.40;;;;;;5057484;28;20267;-67
2023/01/13 09:04:17;;;;;;;3.10;1.80;;;10.00;50.30;;;;;;5055436;28;20186;-67
2023/01/13 09:06:44;;;;;;;3.55;2.10;;;10.00;50.50;;;;;;5070582;28;20193;-67
2023/01/13 09:09:11;;;;;;;3.40;1.05;;;10.00;50.40;;;;;;5072449;28;20276;-67
2023/01/13 09:14:30;;;;;;;3.85;2.10;;;10.10;50.60;;;;;;5055891;28;20193;-68
2023/01/13 09:16:58;;;;;;;8.48;2.70;;;10.10;50.60;;;;;;5064616;28;20217;-67
2023/01/13 09:19:25;;;;;;;4.95;3.10;;;10.20;50.60;;;;;;5072683;28;20286;-67
2023/01/13 09:21:52;;;;;;;5.35;2.53;;;10.20;50.30;;;;;;5072618;28;20276;-67
2023/01/13 09:24:19;;;;;;;4.30;1.85;;;10.20;50.50;;;;;;5072354;28;20213;-67
2023/01/13 09:26:48;;;;;;;6.13;3.08;;;10.10;49.90;;;;;;5073027;28;20221;-67
2023/01/13 09:29:15;;;;;;;4.68;2.90;;;10.10;50.20;;;;;;5072713;28;20235;-68
2023/01/13 09:31:43;;;;;;;6.07;4.05;;;10.20;50.20;;;;;;5073016;28;20264;-67
2023/01/13 09:36:59;;;;;;;3.58;2.00;;;10.30;51.10;;;;;;5072094;28;20235;-68
2023/01/13 09:39:26;;;;;;;2.67;1.45;;;10.30;50.80;;;;;;5072863;28;20220;-67
2023/01/13 09:44:48;;;;;;;3.17;1.65;;;10.30;50.10;;;;;;5054720;28;20232;-67
2023/01/13 09:47:24;;;;;;;4.75;3.00;;;10.20;50.30;;;;;;5054896;28;20562;-67
2023/01/13 09:49:59;;;;;;;4.60;2.78;;;10.20;50.30;;;;;;5068993;28;20205;-67
2023/01/13 09:52:28;;;;;;;5.30;2.67;;;10.30;50.30;;;;;;5072465;28;20272;-67
2023/01/13 09:55:04;;;;;;;3.40;2.38;;;10.50;50.40;;;;;;5067048;28;20189;-67
2023/01/13 09:57:41;;;;;;;2.78;1.27;;;10.70;50.10;;;;;;5072492;28;20216;-67
2023/01/13 10:00:13;;;;;;;3.83;1.90;;;10.90;49.80;;;;;;5054763;28;20182;-67
2023/01/13 10:03:00;;;;;;;3.05;1.50;;;11.60;50.30;;;;;;5054884;28;20337;-67
2023/01/13 10:05:35;;;;;;;2.47;1.30;;;12.50;48.20;;;;;;5069684;28;20193;-67
2023/01/13 10:08:07;;;;;;;3.90;1.13;;;13.60;46.80;;;;;;5072436;28;20224;-67
2023/01/13 10:10:43;;;;;;;2.47;1.10;;;14.90;44.60;;;;;;5054374;28;20516;-67
2023/01/13 10:13:18;;;;;;;3.23;1.20;;;16.30;44.00;;;;;;5054469;28;20842;-67
2023/01/13 10:15:56;;;;;;;3.50;1.40;;;17.20;41.70;;;;;;5054130;28;20428;-68
2023/01/13 10:18:33;;;;;;;5.03;2.00;;;17.20;38.70;;;;;;5054391;28;20636;-67
2023/01/13 10:21:07;;;;;;;5.33;2.47;;;17.10;37.60;;;;;;5068645;28;20468;-67
2023/01/13 10:23:56;;;;;;;4.63;3.30;;;17.70;37.10;;;;;;5065030;28;20466;-67
2023/01/13 10:26:39;;;;;;;3.10;1.47;;;18.20;38.00;;;;;;5053857;28;20424;-69
2023/01/13 10:29:20;;;;;;;2.90;1.20;;;19.00;34.70;;;;;;5054098;28;20947;-67
2023/01/13 10:31:47;;;;;;;3.20;1.50;;;19.00;34.10;;;;;;5054006;28;20826;-67
2023/01/13 10:34:16;;;;;;;2.60;1.30;;;18.60;34.10;;;;;;5068109;28;20911;-67
2023/01/13 10:37:04;;;;;;;3.10;1.20;;;18.10;33.40;;;;;;5065470;28;20429;-67
2023/01/13 10:39:40;;;;;;;4.57;1.20;;;17.60;34.80;;;;;;5060490;28;20443;-66
2023/01/13 10:42:13;;;;;;;3.90;1.10;;;17.20;35.70;;;;;;5066993;28;20435;-67
2023/01/13 10:44:51;;;;;;;4.10;1.40;;;16.80;36.30;;;;;;5064338;28;20474;-66
2023/01/13 10:47:22;;;;;;;2.77;1.03;;;16.40;36.40;;;;;;5068638;28;20542;-67
2023/01/13 10:50:05;;;;;;;1.80;0.70;;;16.20;38.70;;;;;;5066482;28;20452;-67
2023/01/13 10:52:37;;;;;;;2.70;1.50;;;16.50;40.70;;;;;;5064105;28;20436;-66
2023/01/13 10:55:23;;;;;;;1.80;0.70;;;16.90;40.10;;;;;;5064952;28;20451;-66
2023/01/13 10:57:50;;;;;;;1.70;0.70;;;17.20;40.20;;;;;;5063992;28;20519;-67
2023/01/13 11:00:27;;;;;;;1.80;0.50;;;16.90;39.90;;;;;;5069274;28;21099;-66
2023/01/13 11:03:13;;;;;;;1.80;0.67;;;16.80;41.20;;;;;;5065247;28;20439;-66
2023/01/13 11:05:49;;;;;;;1.60;0.60;;;16.90;42.30;;;;;;5067540;28;20519;-66
2023/01/13 11:08:18;;;;;;;1.60;0.50;;;17.70;43.70;;;;;;5068087;28;20514;-66
2023/01/13 11:10:47;;;;;;;2.10;0.70;;;19.00;42.80;;;;;;5068461;28;20526;-66
2023/01/13 11:13:18;;;;;;;1.80;0.57;;;19.90;39.50;;;;;;5064513;28;20448;-67
2023/01/13 11:15:54;;;;;;;3.43;0.90;;;20.40;39.60;;;;;;5068578;28;20437;-67
2023/01/13 11:18:28;;;;;;;1.60;0.60;;;20.90;38.30;;;;;;5066038;28;20423;-67
2023/01/13 11:20:59;;;;;;;1.80;0.60;;;21.30;36.70;;;;;;5060164;28;20427;-67
2023/01/13 11:23:34;;;;;;;2.20;0.70;;;22.00;36.50;;;;;;5068627;28;20519;-67
2023/01/13 11:26:06;;;;;;;2.90;1.40;;;22.70;35.70;;;;;;5065726;28;20459;-66
2023/01/13 11:28:42;;;;;;;1.83;0.60;;;22.40;33.20;;;;;;5067226;28;20441;-66
2023/01/13 11:31:16;;;;;;;1.80;0.63;;;21.50;33.50;;;;;;5062198;28;21017;-67
2023/01/13 11:33:51;;;;;;;1.80;0.60;;;21.00;35.10;;;;;;5066542;28;20539;-66
2023/01/13 11:36:23;;;;;;;2.17;0.60;;;21.20;37.00;;;;;;5060661;28;20435;-67
2023/01/13 11:38:52;;;;;;;1.60;0.50;;;21.90;38.10;;;;;;5060779;28;20839;-67
2023/01/13 11:41:32;;;;;;;1.70;0.50;;;22.60;35.90;;;;;;5066275;28;20458;-67
2023/01/13 11:44:12;;;;;;;2.10;0.97;;;23.20;34.50;;;;;;5063220;28;20538;-68
2023/01/13 11:46:41;;;;;;;1.90;0.70;;;23.30;33.40;;;;;;5065158;28;20512;-68
2023/01/13 11:49:14;;;;;;;2.43;0.80;;;23.20;32.80;;;;;;5064888;28;20432;-67
2023/01/13 11:51:50;;;;;;;1.70;0.50;;;23.30;32.70;;;;;;5059707;28;20567;-67
2023/01/13 11:54:55;;;;;;;1.50;0.43;;;23.40;31.40;;;;;;5066532;28;20921;-67
2023/01/13 11:57:48;;;;;;;1.63;0.50;;;23.20;31.80;;;;;;4982163;28;20448;-67
2023/01/13 12:00:36;;;;;;;1.90;0.50;;;22.60;32.70;;;;;;5054984;28;20555;-68
2023/01/13 12:03:34;;;;;;;1.60;0.50;;;22.20;32.40;;;;;;5062888;28;20436;-67
2023/01/13 12:06:34;;;;;;;1.57;0.50;;;21.60;33.40;;;;;;5063846;28;20445;-67
2023/01/13 12:09:26;;;;;;;2.90;0.60;;;20.70;33.70;;;;;;4979421;28;21080;-68
2023/01/13 12:15:05;;;;;;;1.67;0.50;;;19.20;37.20;;;;;;5060859;28;20763;-67
2023/01/13 12:17:39;;;;;;;1.60;0.50;;;18.60;38.50;;;;;;5065433;28;20442;-67
2023/01/13 12:20:22;;;;;;;1.60;0.60;;;18.30;38.80;;;;;;5066826;28;20439;-67
2023/01/13 12:22:52;;;;;;;1.80;0.70;;;17.90;39.20;;;;;;5062882;28;20467;-67
2023/01/13 12:25:31;;;;;;;1.60;0.57;;;17.50;40.00;;;;;;5067369;28;20436;-67
2023/01/13 12:28:03;;;;;;;2.43;0.77;;;17.00;40.30;;;;;;5064552;28;20508;-67
2023/01/13 12:30:38;;;;;;;2.17;0.70;;;16.70;41.20;;;;;;5066950;28;20570;-67
2023/01/13 12:33:25;;;;;;;2.47;0.53;;;16.50;41.60;;;;;;5066519;28;20527;-67
2023/01/13 12:35:59;;;;;;;1.60;0.57;;;16.00;42.60;;;;;;5064100;28;20432;-67
2023/01/13 12:38:35;;;;;;;1.50;0.60;;;15.50;43.70;;;;;;5061772;28;20470;-67
2023/01/13 12:41:12;;;;;;;4.13;1.30;;;15.20;45.00;;;;;;5065149;28;20526;-67
2023/01/13 12:46:52;;;;;;;1.70;0.70;;;14.50;46.90;;;;;;5063479;28;20925;-67
2023/01/13 12:49:36;;;;;;;1.80;0.83;;;14.10;47.90;;;;;;5064932;28;21001;-68
2023/01/13 12:52:17;;;;;;;2.00;0.70;;;13.70;49.20;;;;;;5067181;28;20562;-67
2023/01/13 12:55:15;;;;;;;2.00;0.80;;;13.30;49.80;;;;;;5063045;28;20428;-67
2023/01/13 12:58:15;;;;;;;1.70;0.70;;;13.00;51.10;;;;;;5063275;28;20440;-67
2023/01/13 13:01:11;;;;;;;1.97;0.97;;;12.80;52.70;;;;;;5063139;28;20428;-67
2023/01/13 13:03:40;;;;;;;1.80;0.70;;;12.60;53.30;;;;;;5066697;28;20506;-67
2023/01/13 13:06:16;;;;;;;1.73;0.80;;;12.50;53.70;;;;;;5065032;28;20526;-67
2023/01/13 13:08:52;;;;;;;1.80;0.70;;;12.30;53.70;;;;;;5060659;28;20514;-68
2023/01/13 13:14:52;;;;;;;4.63;1.13;;;12.10;54.90;;;;;;5066692;28;20466;-68
2023/01/13 13:17:40;;;;;;;7.13;1.10;;;12.00;55.80;;;;;;5064047;28;20493;-67
2023/01/13 13:20:49;;;;;;;2.77;0.90;;;11.90;56.80;;;;;;5060033;28;20715;-68
2023/01/13 13:23:49;;;;;;;1.97;0.93;;;12.40;57.60;;;;;;5063113;28;20464;-67
2023/01/13 13:26:38;;;;;;;2.27;1.00;;;12.60;56.00;;;;;;5065252;28;20471;-69
2023/01/13 13:29:45;;;;;;;1.67;0.80;;;12.80;56.10;;;;;;5052703;28;20512;-67
2023/01/13 13:32:48;;;;;;;2.57;0.90;;;13.20;55.50;;;;;;5067679;28;20478;-68
2023/01/13 13:35:31;;;;;;;3.67;0.87;;;13.60;54.40;;;;;;5056338;28;20439;-67
2023/01/13 13:46:48;;;;;;;2.00;0.70;;;14.70;51.70;;;;;;5066690;28;20424;-68
2023/01/13 13:49:17;;;;;;;1.83;0.57;;;14.80;51.00;;;;;;5068631;28;20427;-68
2023/01/13 13:51:51;;;;;;;1.60;0.60;;;14.90;50.80;;;;;;5064809;28;20615;-67
2023/01/13 13:54:21;;;;;;;2.43;0.70;;;14.80;49.40;;;;;;5067922;28;20917;-67
2023/01/13 13:56:50;;;;;;;2.10;0.90;;;14.60;49.30;;;;;;5067226;28;20478;-68
2023/01/13 13:59:20;;;;;;;1.90;0.70;;;14.60;49.90;;;;;;5068230;28;20428;-68
2023/01/13 14:01:59;;;;;;;1.80;0.70;;;14.70;49.20;;;;;;5065033;28;20519;-68
2023/01/13 14:04:28;;;;;;;2.87;0.63;;;14.50;48.60;;;;;;5069327;28;20942;-68
2023/01/13 14:06:59;;;;;;;1.70;0.70;;;14.30;48.10;;;;;;5067153;28;20803;-68
2023/01/13 14:09:38;;;;;;;1.60;0.60;;;14.10;47.90;;;;;;5061271;28;20526;-68
2023/01/13 14:12:15;;;;;;;2.43;0.73;;;13.90;48.10;;;;;;5068443;28;20482;-68
2023/01/13 14:14:43;;;;;;;1.80;0.60;;;13.60;48.30;;;;;;5064087;28;20510;-68
2023/01/13 14:17:23;;;;;;;2.20;0.83;;;13.40;48.60;;;;;;5062766;28;20439;-67
2023/01/13 14:19:56;;;;;;;1.80;0.70;;;13.10;49.20;;;;;;5069650;28;20442;-68
2023/01/13 14:22:25;;;;;;;1.73;0.67;;;12.90;49.10;;;;;;5064177;28;20482;-67
2023/01/13 14:24:56;;;;;;;2.33;0.63;;;12.80;49.60;;;;;;5063525;28;20451;-68
2023/01/13 14:27:26;;;;;;;3.67;0.83;;;12.60;49.90;;;;;;5068701;28;20515;-67
2023/01/13 14:29:54;;;;;;;3.33;1.00;;;12.50;50.00;;;;;;5066681;28;20565;-67